createdAt,value
2022-08-17T00:02:25.488Z,21.38
2022-08-17T00:04:53.297Z,21.31
2022-08-17T00:07:19.873Z,21.23
2022-08-17T00:09:46.780Z,21.13
2022-08-17T00:12:43.209Z,21.11
2022-08-17T00:14:59.862Z,21.15
2022-08-17T00:17:26.416Z,21.12
2022-08-17T00:19:52.989Z,21.09
2022-08-17T00:22:32.676Z,21.11
2022-08-17T00:25:07.086Z,21.13
2022-08-17T00:27:33.800Z,21.12
2022-08-17T00:30:00.380Z,21.14
2022-08-17T00:33:15.711Z,21.14
2022-08-17T00:35:19.356Z,21.11
2022-08-17T00:37:45.902Z,21.11
2022-08-17T00:40:14.694Z,21.08
2022-08-17T00:42:42.481Z,21.08
2022-08-17T00:45:11.444Z,20.98
2022-08-17T00:47:38.153Z,20.90
2022-08-17T00:50:08.134Z,20.88
2022-08-17T00:52:39.381Z,20.93
2022-08-17T00:55:07.226Z,20.98
2022-08-17T00:57:38.873Z,21.02
2022-08-17T01:00:16.416Z,21.02
2022-08-17T01:02:46.033Z,21.03
2022-08-17T01:05:16.643Z,21.04
2022-08-17T01:07:47.572Z,21.03
2022-08-17T01:10:59.823Z,21.02
2022-08-17T01:13:02.877Z,21.02
2022-08-17T01:15:36.577Z,21.01
2022-08-17T01:18:05.716Z,21.00
2022-08-17T01:20:48.234Z,20.95
2022-08-17T01:23:18.551Z,20.85
2022-08-17T01:25:51.398Z,20.83
2022-08-17T01:28:33.243Z,20.74
2022-08-17T01:31:07.171Z,20.73
2022-08-17T01:33:34.152Z,20.73
2022-08-17T01:36:00.713Z,20.78
2022-08-17T01:38:31.581Z,20.78
2022-08-17T01:41:09.433Z,20.78
2022-08-17T01:43:47.123Z,20.79
2022-08-17T01:46:21.820Z,20.79
2022-08-17T01:48:48.437Z,20.85
2022-08-17T01:51:16.073Z,20.85
2022-08-17T01:53:47.265Z,20.89
2022-08-17T01:56:18.149Z,20.91
2022-08-17T01:58:45.710Z,20.89
2022-08-17T02:01:14.803Z,20.93
2022-08-17T02:03:42.082Z,20.92
2022-08-17T02:06:27.792Z,20.94
2022-08-17T02:09:01.922Z,20.91
2022-08-17T02:11:31.522Z,20.92
2022-08-17T02:14:02.911Z,20.92
2022-08-17T02:16:36.702Z,20.94
2022-08-17T02:19:10.369Z,20.95
2022-08-17T02:21:38.648Z,20.90
2022-08-17T02:24:08.346Z,20.87
2022-08-17T02:26:36.162Z,20.89
2022-08-17T02:29:04.127Z,20.83
2022-08-17T02:31:31.118Z,20.84
2022-08-17T02:34:04.702Z,20.87
2022-08-17T02:36:34.093Z,20.87
2022-08-17T02:39:09.664Z,20.84
2022-08-17T02:41:36.720Z,20.85
2022-08-17T02:44:03.869Z,20.81
2022-08-17T02:46:31.214Z,20.72
2022-08-17T02:48:58.241Z,20.77
2022-08-17T02:51:25.804Z,20.81
2022-08-17T02:53:52.530Z,20.75
2022-08-17T02:56:38.902Z,20.70
2022-08-17T02:59:05.456Z,20.69
2022-08-17T03:01:31.918Z,20.65
2022-08-17T03:03:58.899Z,20.73
2022-08-17T03:06:25.538Z,20.79
2022-08-17T03:08:53.128Z,20.82
2022-08-17T03:11:19.806Z,20.80
2022-08-17T03:13:46.374Z,20.82
2022-08-17T03:16:12.999Z,20.77
2022-08-17T03:18:39.436Z,20.71
2022-08-17T03:21:06.920Z,20.61
2022-08-17T03:23:33.841Z,20.65
2022-08-17T03:26:00.981Z,20.68
2022-08-17T03:28:28.389Z,20.72
2022-08-17T03:30:54.838Z,20.75
2022-08-17T03:33:22.096Z,20.77
2022-08-17T03:35:48.738Z,20.81
2022-08-17T03:38:17.393Z,20.87
2022-08-17T03:40:57.675Z,20.90
2022-08-17T03:43:29.557Z,20.92
2022-08-17T03:46:28.100Z,20.97
2022-08-17T03:49:19.592Z,21.06
2022-08-17T03:52:04.925Z,21.04
2022-08-17T03:54:50.373Z,21.04
2022-08-17T03:57:17.315Z,21.01
2022-08-17T03:59:45.160Z,21.08
2022-08-17T04:02:17.449Z,21.07
2022-08-17T04:04:44.053Z,21.08
2022-08-17T04:07:10.728Z,21.09
2022-08-17T04:09:37.217Z,21.07
2022-08-17T04:12:05.315Z,21.03
2022-08-17T04:14:39.206Z,21.01
2022-08-17T04:17:20.520Z,20.98
2022-08-17T04:19:47.136Z,20.98
2022-08-17T04:22:30.690Z,20.94
2022-08-17T04:25:08.904Z,20.93
2022-08-17T04:27:35.806Z,20.96
2022-08-17T04:30:02.720Z,20.98
2022-08-17T04:33:03.393Z,21.00
2022-08-17T04:35:21.248Z,21.03
2022-08-17T04:37:48.033Z,21.03
2022-08-17T04:40:33.034Z,21.04
2022-08-17T04:43:08.935Z,21.07
2022-08-17T04:45:54.891Z,21.05
2022-08-17T04:48:23.565Z,21.02
2022-08-17T04:51:10.439Z,20.98
2022-08-17T04:53:39.296Z,20.94
2022-08-17T04:56:05.999Z,20.91
2022-08-17T04:58:32.682Z,20.90
2022-08-17T05:00:59.628Z,20.88
2022-08-17T05:03:26.427Z,20.88
2022-08-17T05:05:53.825Z,20.88
2022-08-17T05:08:21.815Z,20.88
2022-08-17T05:10:49.326Z,20.89
2022-08-17T05:13:22.770Z,20.92
2022-08-17T05:15:52.702Z,20.92
2022-08-17T05:18:19.329Z,20.92
2022-08-17T05:20:45.796Z,20.95
2022-08-17T05:23:15.081Z,21.00
2022-08-17T05:25:47.603Z,21.02
2022-08-17T05:28:15.906Z,21.03
2022-08-17T05:30:43.484Z,20.98
2022-08-17T05:33:34.416Z,20.94
2022-08-17T05:36:02.442Z,20.90
2022-08-17T05:38:30.334Z,20.84
2022-08-17T05:40:58.508Z,20.83
2022-08-17T05:43:28.229Z,20.79
2022-08-17T05:46:05.205Z,20.77
2022-08-17T05:48:44.571Z,20.72
2022-08-17T05:51:16.940Z,20.67
2022-08-17T05:53:56.223Z,20.61
2022-08-17T05:56:47.492Z,20.55
2022-08-17T05:59:51.744Z,20.55
2022-08-17T06:03:00.647Z,20.57
2022-08-17T06:05:54.146Z,20.72
2022-08-17T06:08:42.135Z,20.84
2022-08-17T06:11:22.795Z,20.90
2022-08-17T06:14:06.038Z,20.85
2022-08-17T06:16:40.062Z,20.69
2022-08-17T06:19:18.777Z,20.54
2022-08-17T06:21:50.078Z,20.52
2022-08-17T06:24:35.592Z,20.58
2022-08-17T06:27:12.004Z,20.76
2022-08-17T06:29:57.953Z,20.89
2022-08-17T06:32:25.103Z,20.97
2022-08-17T06:34:52.769Z,21.80
2022-08-17T06:37:34.710Z,22.73
2022-08-17T06:40:10.904Z,22.44
2022-08-17T06:43:07.799Z,22.08
2022-08-17T06:45:38.949Z,21.92
2022-08-17T06:48:25.782Z,21.87
2022-08-17T06:51:00.125Z,21.85
2022-08-17T06:53:38.862Z,21.84
2022-08-17T06:56:09.326Z,21.84
2022-08-17T06:58:37.352Z,21.86
2022-08-17T07:01:09.916Z,21.88
2022-08-17T07:03:59.297Z,21.87
2022-08-17T07:06:48.488Z,21.76
2022-08-17T07:09:21.639Z,21.67
2022-08-17T07:12:05.247Z,21.64
2022-08-17T07:14:39.391Z,21.56
2022-08-17T07:17:18.354Z,21.52
2022-08-17T07:19:47.560Z,21.57
2022-08-17T07:22:59.698Z,21.56
2022-08-17T07:25:28.672Z,21.54
2022-08-17T07:28:00.397Z,21.55
2022-08-17T07:30:31.641Z,21.48
2022-08-17T07:33:22.764Z,21.41
2022-08-17T07:35:50.250Z,21.39
2022-08-17T07:38:24.691Z,21.35
2022-08-17T07:41:01.242Z,21.30
2022-08-17T07:43:29.569Z,21.25
2022-08-17T07:46:14.804Z,21.27
2022-08-17T07:48:46.478Z,21.26
2022-08-17T07:51:48.176Z,21.26
2022-08-17T07:54:19.640Z,21.27
2022-08-17T07:56:50.593Z,21.27
2022-08-17T07:59:23.916Z,21.26
2022-08-17T08:01:57.596Z,21.20
2022-08-17T08:05:00.247Z,21.25
2022-08-17T08:07:20.770Z,21.34
2022-08-17T08:09:59.011Z,21.41
2022-08-17T08:12:34.002Z,21.47
2022-08-17T08:15:15.292Z,21.56
2022-08-17T08:17:47.701Z,21.54
2022-08-17T08:23:00.503Z,21.75
2022-08-17T08:25:57.300Z,21.76
2022-08-17T08:28:36.395Z,21.84
2022-08-17T08:31:27.718Z,21.96
2022-08-17T08:34:47.374Z,21.98
2022-08-17T08:37:20.634Z,21.95
2022-08-17T08:39:57.640Z,21.98
2022-08-17T08:42:52.765Z,22.08
2022-08-17T08:45:30.497Z,22.13
2022-08-17T08:48:53.640Z,22.16
2022-08-17T08:51:55.296Z,22.33
2022-08-17T08:54:34.997Z,22.40
2022-08-17T08:57:29.407Z,22.37
2022-08-17T09:00:21.724Z,22.39
2022-08-17T09:03:12.900Z,22.34
2022-08-17T09:05:57.398Z,22.36
2022-08-17T09:08:32.330Z,22.32
2022-08-17T09:11:22.509Z,22.27
2022-08-17T09:14:21.454Z,22.07
2022-08-17T09:17:08.030Z,21.92
2022-08-17T09:19:50.217Z,21.82
2022-08-17T09:22:31.496Z,21.67
2022-08-17T09:25:07.138Z,21.46
2022-08-17T09:27:48.171Z,21.22
2022-08-17T09:30:15.178Z,21.11
2022-08-17T09:32:45.668Z,21.06
2022-08-17T09:35:16.160Z,20.96
2022-08-17T09:38:10.296Z,20.92
2022-08-17T09:41:07.223Z,20.76
2022-08-17T09:43:40.980Z,20.78
2022-08-17T09:46:31.808Z,20.67
2022-08-17T09:49:33.293Z,20.47
2022-08-17T09:52:13.506Z,20.33
2022-08-17T09:54:41.320Z,20.31
2022-08-17T09:57:30.184Z,20.35
2022-08-17T10:00:18.930Z,20.50
2022-08-17T10:02:54.473Z,20.81
2022-08-17T10:05:27.318Z,21.04
2022-08-17T10:08:29.430Z,21.29
2022-08-17T10:11:07.157Z,21.21
2022-08-17T10:13:59.755Z,21.21
2022-08-17T10:16:42.325Z,21.37
2022-08-17T10:19:35.724Z,21.35
2022-08-17T10:22:35.064Z,21.29
2022-08-17T10:25:26.181Z,21.37
2022-08-17T10:28:06.629Z,21.39
2022-08-17T10:30:45.018Z,21.45
2022-08-17T10:33:26.387Z,21.41
2022-08-17T10:36:10.193Z,21.49
2022-08-17T10:38:46.418Z,21.55
2022-08-17T10:41:41.182Z,21.47
2022-08-17T10:44:38.331Z,21.61
2022-08-17T10:47:15.880Z,21.71
2022-08-17T10:49:49.538Z,21.74
2022-08-17T10:52:28.098Z,21.75
2022-08-17T10:54:58.528Z,21.78
2022-08-17T11:00:10.509Z,21.71
2022-08-17T11:02:50.069Z,21.67
2022-08-17T11:05:30.236Z,21.73
2022-08-17T11:08:38.609Z,21.81
2022-08-17T11:11:35.812Z,21.70
2022-08-17T11:14:13.812Z,21.63
2022-08-17T11:16:40.372Z,21.49
2022-08-17T11:19:15.047Z,21.42
2022-08-17T11:22:13.922Z,21.44
2022-08-17T11:24:47.726Z,21.49
2022-08-17T11:27:26.633Z,21.52
2022-08-17T11:30:04.027Z,21.53
2022-08-17T11:32:47.367Z,21.55
2022-08-17T11:35:20.954Z,21.55
2022-08-17T11:38:16.465Z,21.53
2022-08-17T11:41:18.807Z,21.54
2022-08-17T11:44:02.023Z,21.54
2022-08-17T11:47:12.706Z,21.51
2022-08-17T11:49:57.599Z,21.50
2022-08-17T11:52:46.939Z,21.40
2022-08-17T11:55:39.585Z,21.39
2022-08-17T11:58:27.578Z,21.35
2022-08-17T12:00:59.688Z,21.34
2022-08-17T12:03:32.287Z,21.32
2022-08-17T12:06:19.996Z,21.28
2022-08-17T12:09:22.443Z,21.25
2022-08-17T12:12:12.595Z,21.19
2022-08-17T12:17:40.914Z,21.14
2022-08-17T12:20:23.076Z,21.16
2022-08-17T12:23:07.610Z,21.22
2022-08-17T12:25:47.221Z,21.31
2022-08-17T12:28:23.062Z,21.38
2022-08-17T12:30:52.124Z,21.43
2022-08-17T12:33:25.273Z,21.47
2022-08-17T12:36:02.921Z,21.48
2022-08-17T12:38:34.453Z,21.49
2022-08-17T12:41:24.816Z,21.50
2022-08-17T12:44:04.704Z,21.43
2022-08-17T12:46:46.890Z,21.41
2022-08-17T12:49:16.090Z,21.42
2022-08-17T12:51:45.073Z,21.40
2022-08-17T12:54:26.091Z,21.38
2022-08-17T12:56:52.942Z,21.34
2022-08-17T12:59:30.100Z,21.30
2022-08-17T13:01:57.382Z,21.26
2022-08-17T13:04:24.154Z,21.26
2022-08-17T13:06:59.607Z,21.26
2022-08-17T13:09:35.680Z,21.29
2022-08-17T13:12:07.511Z,21.28
2022-08-17T13:14:35.118Z,21.30
2022-08-17T13:17:06.331Z,21.31
2022-08-17T13:19:41.378Z,21.31
2022-08-17T13:22:12.408Z,21.30
2022-08-17T13:24:53.077Z,21.27
2022-08-17T13:27:22.334Z,21.28
2022-08-17T13:29:55.753Z,21.30
2022-08-17T13:32:37.477Z,21.23
2022-08-17T13:35:28.441Z,21.19
2022-08-17T13:38:39.526Z,21.13
2022-08-17T13:41:07.549Z,21.06
2022-08-17T13:43:46.047Z,21.08
2022-08-17T13:46:20.108Z,21.06
2022-08-17T13:48:56.990Z,21.06
2022-08-17T13:51:42.635Z,21.04
2022-08-17T13:54:21.251Z,21.05
2022-08-17T13:57:06.721Z,21.08
2022-08-17T13:59:53.204Z,21.02
2022-08-17T14:02:21.920Z,21.04
2022-08-17T14:04:48.798Z,21.01
2022-08-17T14:07:15.982Z,20.99
2022-08-17T14:09:53.241Z,21.03
2022-08-17T14:12:25.175Z,21.12
2022-08-17T14:14:53.274Z,21.20
2022-08-17T14:17:20.231Z,21.34
2022-08-17T14:19:46.703Z,21.37
2022-08-17T14:22:23.617Z,21.38
2022-08-17T14:24:51.447Z,21.36
2022-08-17T14:27:19.275Z,21.36
2022-08-17T14:29:46.461Z,21.45
2022-08-17T14:32:23.131Z,21.56
2022-08-17T14:34:49.900Z,21.67
2022-08-17T14:37:17.690Z,21.72
2022-08-17T14:39:44.426Z,21.85
2022-08-17T14:42:11.410Z,21.91
2022-08-17T14:44:39.236Z,21.90
2022-08-17T14:47:07.254Z,21.93
2022-08-17T14:49:33.812Z,21.99
2022-08-17T14:52:00.781Z,22.01
2022-08-17T14:54:33.610Z,21.94
2022-08-17T14:57:23.075Z,21.96
2022-08-17T14:59:49.209Z,21.91
2022-08-17T15:02:29.320Z,21.85
2022-08-17T15:05:03.463Z,21.83
2022-08-17T15:07:31.264Z,21.88
2022-08-17T15:10:00.938Z,21.95
2022-08-17T15:12:32.365Z,21.92
2022-08-17T15:15:00.773Z,21.86
2022-08-17T15:17:27.378Z,21.92
2022-08-17T15:20:15.243Z,21.94
2022-08-17T15:22:43.390Z,21.96
2022-08-17T15:25:11.449Z,21.96
2022-08-17T15:27:38.081Z,21.96
2022-08-17T15:30:05.964Z,21.99
2022-08-17T15:32:36.364Z,22.01
2022-08-17T15:35:05.198Z,22.03
2022-08-17T15:37:35.396Z,22.02
2022-08-17T15:40:02.106Z,22.07
2022-08-17T15:42:29.309Z,22.13
2022-08-17T15:44:56.261Z,22.17
2022-08-17T15:47:24.996Z,22.20
2022-08-17T15:49:55.473Z,22.24
2022-08-17T15:52:26.521Z,22.29
2022-08-17T15:54:56.717Z,22.35
2022-08-17T15:57:26.813Z,22.33
2022-08-17T15:59:58.926Z,22.30
2022-08-17T16:03:44.762Z,22.25
2022-08-17T16:05:21.962Z,22.24
2022-08-17T16:07:51.440Z,22.20
2022-08-17T16:10:19.237Z,22.23
2022-08-17T16:12:47.986Z,22.30
2022-08-17T16:15:15.414Z,22.25
2022-08-17T16:17:42.346Z,22.07
2022-08-17T16:20:20.048Z,22.05
2022-08-17T16:22:48.764Z,22.06
2022-08-17T16:25:21.418Z,22.02
2022-08-17T16:27:53.386Z,21.91
2022-08-17T16:30:22.223Z,21.89
2022-08-17T16:32:51.938Z,21.77
2022-08-17T16:35:22.133Z,21.71
2022-08-17T16:37:49.472Z,21.64
2022-08-17T16:40:17.061Z,21.57
2022-08-17T16:42:48.354Z,21.55
2022-08-17T16:45:20.791Z,21.53
2022-08-17T16:47:49.855Z,21.56
2022-08-17T16:50:19.102Z,21.49
2022-08-17T16:52:48.419Z,21.56
2022-08-17T16:55:18.233Z,21.53
2022-08-17T16:57:47.540Z,21.52
2022-08-17T17:00:17.261Z,21.53
2022-08-17T17:02:49.611Z,21.52
2022-08-17T17:05:25.963Z,21.45
2022-08-17T17:08:00.764Z,21.47
2022-08-17T17:10:48.332Z,21.45
2022-08-17T17:13:24.395Z,21.45
2022-08-17T17:16:11.465Z,21.35
2022-08-17T17:19:10.451Z,21.31
2022-08-17T17:22:15.577Z,21.39
2022-08-17T17:25:11.895Z,21.44
2022-08-17T17:28:00.792Z,21.45
2022-08-17T17:30:59.197Z,21.46
2022-08-17T17:33:40.417Z,21.41
2022-08-17T17:36:24.343Z,21.38
2022-08-17T17:38:54.648Z,21.30
2022-08-17T17:41:32.403Z,21.19
2022-08-17T17:44:10.939Z,21.17
2022-08-17T17:46:42.844Z,21.18
2022-08-17T17:49:14.310Z,21.17
2022-08-17T17:52:12.360Z,21.17
2022-08-17T17:55:00.539Z,21.17
2022-08-17T17:57:47.003Z,21.15
2022-08-17T18:00:37.815Z,21.12
2022-08-17T18:03:10.052Z,21.08
2022-08-17T18:05:53.087Z,21.01
2022-08-17T18:08:38.560Z,21.04
2022-08-17T18:11:24.252Z,21.02
2022-08-17T18:14:22.511Z,21.04
2022-08-17T18:16:56.188Z,21.08
2022-08-17T18:19:25.551Z,21.08
2022-08-17T18:22:04.037Z,21.09
2022-08-17T18:24:38.037Z,21.09
2022-08-17T18:27:19.238Z,21.07
2022-08-17T18:29:51.240Z,21.07
2022-08-17T18:32:26.317Z,21.07
2022-08-17T18:35:10.008Z,21.02
2022-08-17T18:37:39.560Z,20.92
2022-08-17T18:40:20.957Z,20.81
2022-08-17T18:42:59.451Z,20.77
2022-08-17T18:45:46.320Z,20.76
2022-08-17T18:48:24.505Z,20.69
2022-08-17T18:50:53.608Z,20.64
2022-08-17T18:53:36.093Z,20.56
2022-08-17T18:56:21.797Z,20.44
2022-08-17T18:58:54.208Z,20.40
2022-08-17T19:01:21.443Z,20.34
2022-08-17T19:04:25.814Z,20.27
2022-08-17T19:07:08.077Z,20.23
2022-08-17T19:09:39.532Z,20.18
2022-08-17T19:12:08.953Z,20.13
2022-08-17T19:14:35.899Z,20.08
2022-08-17T19:17:16.349Z,20.05
2022-08-17T19:20:10.243Z,20.00
2022-08-17T19:22:58.898Z,19.95
2022-08-17T19:25:30.658Z,19.95
2022-08-17T19:28:21.629Z,19.97
2022-08-17T19:30:51.075Z,19.98
2022-08-17T19:33:17.640Z,19.99
2022-08-17T19:36:05.761Z,20.01
2022-08-17T19:38:51.028Z,19.98
2022-08-17T19:41:29.974Z,19.97
2022-08-17T19:44:08.120Z,19.98
2022-08-17T19:46:56.187Z,19.98
2022-08-17T19:49:41.384Z,19.96
2022-08-17T19:52:39.159Z,19.95
2022-08-17T19:55:20.616Z,19.94
2022-08-17T19:58:07.782Z,19.94
2022-08-17T20:00:41.886Z,19.93
2022-08-17T20:03:16.550Z,19.93
2022-08-17T20:06:11.917Z,19.89
2022-08-17T20:08:48.889Z,19.89
2022-08-17T20:11:21.157Z,19.88
2022-08-17T20:14:13.218Z,19.90
2022-08-17T20:16:39.709Z,19.91
2022-08-17T20:19:17.933Z,19.92
2022-08-17T20:22:08.495Z,19.92
2022-08-17T20:24:47.892Z,19.94
2022-08-17T20:27:31.688Z,19.94
2022-08-17T20:30:03.715Z,19.90
2022-08-17T20:32:55.494Z,19.89
2022-08-17T20:35:23.902Z,19.88
2022-08-17T20:37:54.010Z,19.85
2022-08-17T20:40:25.827Z,19.82
2022-08-17T20:42:52.760Z,19.77
2022-08-17T20:45:23.397Z,19.74
2022-08-17T20:48:21.596Z,19.69
2022-08-17T20:50:57.388Z,19.63
2022-08-17T20:53:54.834Z,19.60
2022-08-17T20:56:43.447Z,19.59
2022-08-17T20:59:30.368Z,19.58
2022-08-17T21:02:08.953Z,19.56
2022-08-17T21:05:00.140Z,19.54
2022-08-17T21:07:42.621Z,19.51
2022-08-17T21:10:18.471Z,19.46
2022-08-17T21:12:51.604Z,19.43
2022-08-17T21:15:18.034Z,19.38
2022-08-17T21:17:59.460Z,19.31
2022-08-17T21:20:32.536Z,19.28
2022-08-17T21:23:02.144Z,19.26
2022-08-17T21:26:07.674Z,19.25
2022-08-17T21:29:00.230Z,19.25
2022-08-17T21:31:37.033Z,19.25
2022-08-17T21:34:15.821Z,19.24
2022-08-17T21:36:48.242Z,19.25
2022-08-17T21:39:42.544Z,19.26
2022-08-17T21:42:12.289Z,19.28
2022-08-17T21:44:47.814Z,19.29
2022-08-17T21:47:20.352Z,19.29
2022-08-17T21:49:47.436Z,19.29
2022-08-17T21:52:17.553Z,19.29
2022-08-17T21:54:53.587Z,19.27
2022-08-17T21:57:24.481Z,19.24
2022-08-17T21:59:58.105Z,19.21
2022-08-17T22:02:30.319Z,19.14
2022-08-17T22:05:04.906Z,19.10
2022-08-17T22:07:51.004Z,19.03
2022-08-17T22:10:39.459Z,18.98
2022-08-17T22:13:17.598Z,18.99
2022-08-17T22:16:15.742Z,18.97
2022-08-17T22:18:57.545Z,18.97
2022-08-17T22:21:24.618Z,18.94
2022-08-17T22:24:15.240Z,18.90
2022-08-17T22:27:00.150Z,18.90
2022-08-17T22:29:57.644Z,18.90
2022-08-17T22:32:37.477Z,18.88
2022-08-17T22:35:28.925Z,18.85
2022-08-17T22:38:20.188Z,18.83
2022-08-17T22:40:56.656Z,18.79
2022-08-17T22:43:26.304Z,18.78
2022-08-17T22:45:57.562Z,18.76
2022-08-17T22:48:28.298Z,18.71
2022-08-17T22:51:26.941Z,18.69
2022-08-17T22:54:17.399Z,18.67
2022-08-17T22:57:18.730Z,18.65
2022-08-17T22:59:45.397Z,18.63
2022-08-17T23:02:17.300Z,18.59
2022-08-17T23:04:49.193Z,18.57
2022-08-17T23:07:15.801Z,18.56
2022-08-17T23:09:42.658Z,18.51
2022-08-17T23:12:15.945Z,18.48
2022-08-17T23:14:45.737Z,18.48
2022-08-17T23:17:12.802Z,18.47
2022-08-17T23:19:39.351Z,18.46
2022-08-17T23:22:09.400Z,18.43
2022-08-17T23:24:43.576Z,18.39
2022-08-17T23:27:10.468Z,18.35
2022-08-17T23:29:39.513Z,18.32
2022-08-17T23:32:06.993Z,18.30
2022-08-17T23:34:33.509Z,18.23
2022-08-17T23:37:02.115Z,18.21
2022-08-17T23:39:28.628Z,18.21
2022-08-17T23:41:57.885Z,18.21
2022-08-17T23:44:25.112Z,18.19
2022-08-17T23:46:52.735Z,18.19
2022-08-17T23:49:19.893Z,18.19
2022-08-17T23:51:48.077Z,18.18
2022-08-17T23:54:41.583Z,18.18
2022-08-17T23:57:09.309Z,18.18
2022-08-17T23:59:37.228Z,18.18
